logo
Search for airport 
image banner adimage banner adimage banner ad
image banner ad

HKIU - Kiunga

Located in , Kenya

ICAO - , IATA - KIU

Data provided by Airmate  

General information

Coordinates: S1°44'9" E41°29'4"
Elevation is 19 feet MSL.
 
View others Airports in Coast Province

Operational data

Special qualification required
Current time UTC:
Current local time:
Weather at : - ( 0 km )
METAR: RCFN 180835Z 02004KT 320V090 3500 VCTS SHRA FEW010 FEW015CB BKN018 BKN030 24/23 Q1011 NOSIG RMK TS W MOV N A2986
View NOTAMs / SUP AIP / TFR affecting this airport [VIEW]
Communications frequencies: [VIEW]

Runways:

RWY identifierQFULength (ft)Width (ft)SurfaceLDA (ft)
1400UNK
3200UNK

Airport contact information

Address: Kenya

Satellite view of HKIU